Time;durP1;ratioP1;P1;durP2;ratioP2;P2;SDS_P1;SDS_P2;PMS_P1;PMS_P2;Temp;Humidity;BMP_temperature;BMP_pressure;BME280_temperature;BME280_humidity;BME280_pressure;Samples;Min_cycle;Max_cycle;Signal;HPM_P1;HPM_P2
2022/03/15 00:01:25;;;;;;;34.80;16.50;;;;;;;4.10;100.00;102116.19;108006;1279;72427;-74
2022/03/15 00:03:52;;;;;;;34.70;15.80;;;;;;;4.04;100.00;102121.48;107783;1279;74385;-72
2022/03/15 00:06:19;;;;;;;33.80;16.20;;;;;;;3.99;100.00;102122.48;107988;1279;61149;-74
2022/03/15 00:08:48;;;;;;;29.60;15.00;;;;;;;3.93;100.00;102121.27;107982;1279;61676;-74
2022/03/15 00:11:18;;;;;;;35.70;16.30;;;;;;;3.89;100.00;102122.43;107827;1279;74065;-75
2022/03/15 00:28:40;;;;;;;34.70;16.30;;;;;;;3.59;100.00;102134.55;108047;1268;68068;31
2022/03/15 00:31:07;;;;;;;35.90;16.30;;;;;;;3.56;100.00;102133.23;107912;1269;73053;-75
2022/03/15 00:42:18;;;;;;;35.60;17.20;;;;;;;3.40;100.00;102144.29;108517;1266;68645;-74
2022/03/15 00:50:33;;;;;;;36.00;15.50;;;;;;;3.28;100.00;102141.91;108117;1268;145784;-75
2022/03/15 00:53:00;;;;;;;38.50;18.80;;;;;;;3.29;100.00;102150.26;108193;1277;75627;-74
2022/03/15 00:55:32;;;;;;;36.60;16.90;;;;;;;3.27;100.00;102149.30;108243;1277;72368;-76
2022/03/15 00:58:03;;;;;;;39.10;17.60;;;;;;;3.25;100.00;102153.41;107931;1278;72993;-74
2022/03/15 01:00:39;;;;;;;38.70;18.60;;;;;;;3.25;100.00;102156.04;108242;1277;61758;-76
2022/03/15 01:03:06;;;;;;;41.40;17.60;;;;;;;3.26;100.00;102162.28;108257;1277;60859;-74
2022/03/15 01:05:33;;;;;;;33.50;18.50;;;;;;;3.25;100.00;102162.68;108276;1277;74492;-75
2022/03/15 01:08:07;;;;;;;33.70;17.90;;;;;;;3.26;100.00;102158.80;108258;1277;71484;-74
2022/03/15 01:10:34;;;;;;;39.00;17.60;;;;;;;3.29;100.00;102162.46;108184;1276;74177;-74
2022/03/15 01:13:01;;;;;;;35.40;16.70;;;;;;;3.33;100.00;102165.55;107997;1278;62738;-74
2022/03/15 01:15:34;;;;;;;41.40;19.60;;;;;;;3.38;100.00;102169.41;107996;1278;60469;-73
2022/03/15 01:18:01;;;;;;;41.90;18.80;;;;;;;3.44;100.00;102170.29;108263;1277;75663;-73
2022/03/15 01:20:40;;;;;;;;;;;;;;;;;;;;;
2022/03/15 01:23:12;;;;;;;38.50;16.40;;;;;;;3.54;100.00;102171.26;108107;1279;73188;-73
2022/03/15 01:25:39;;;;;;;38.80;16.90;;;;;;;3.58;100.00;102169.48;108197;1277;61497;-74
2022/03/15 01:28:09;;;;;;;35.00;17.90;;;;;;;3.60;100.00;102167.56;107966;1279;62164;-74
2022/03/15 01:30:36;;;;;;;40.10;19.00;;;;;;;3.62;100.00;102161.33;107970;1277;77236;-72
2022/03/15 01:33:06;;;;;;;38.00;18.30;;;;;;;3.64;100.00;102161.90;108246;1277;72300;-74
2022/03/15 01:35:38;;;;;;;33.60;17.00;;;;;;;3.65;100.00;102164.83;107920;1277;73979;-74
2022/03/15 01:38:05;;;;;;;34.30;17.40;;;;;;;3.65;100.00;102169.20;108270;1277;62689;-74
2022/03/15 01:40:32;;;;;;;34.60;16.80;;;;;;;3.65;100.00;102169.56;107905;1280;60304;-74
2022/03/15 01:43:11;;;;;;;39.60;18.80;;;;;;;3.66;100.00;102170.37;108139;1277;74996;-73
2022/03/15 01:45:39;;;;;;;36.40;17.30;;;;;;;3.68;100.00;102166.91;108235;1277;70818;-75
2022/03/15 01:48:09;;;;;;;38.30;15.80;;;;;;;3.72;100.00;102163.23;108129;1267;74136;-74
2022/03/15 01:50:37;;;;;;;39.40;18.90;;;;;;;3.74;100.00;102162.23;108201;1267;63958;-74
2022/03/15 01:53:37;;;;;;;37.20;17.60;;;;;;;3.76;100.00;102154.20;108200;1267;63105;31
2022/03/15 01:56:11;;;;;;;34.40;18.00;;;;;;;3.79;100.00;102151.95;108085;1269;75998;-72
2022/03/15 01:58:38;;;;;;;34.00;15.70;;;;;;;3.79;100.00;102149.27;108295;1276;71416;-73
2022/03/15 02:01:31;;;;;;;38.30;18.30;;;;;;;3.80;100.00;102144.48;108169;1277;74080;-72
2022/03/15 02:07:10;;;;;;;37.50;17.20;;;;;;;3.78;100.00;102144.96;107955;1268;61761;31
2022/03/15 02:09:37;;;;;;;34.20;16.70;;;;;;;3.75;100.00;102141.69;107832;1268;75090;-73
2022/03/15 02:12:53;;;;;;;34.90;15.50;;;;;;;3.70;100.00;102140.07;108007;1279;72468;-74
2022/03/15 02:16:21;;;;;;;34.60;16.50;;;;;;;3.65;100.00;102138.96;107628;1281;76754;-74
2022/03/15 02:18:51;;;;;;;32.30;15.60;;;;;;;3.57;100.00;102142.73;107712;1279;60221;-72
2022/03/15 02:21:18;;;;;;;30.10;15.50;;;;;;;3.52;100.00;102143.96;107901;1281;60263;-74
2022/03/15 02:24:46;;;;;;;27.70;14.80;;;;;;;3.45;100.00;102142.09;107970;1279;75898;-74
2022/03/15 02:27:23;;;;;;;;;;;;;;;;;;;;;
2022/03/15 02:30:15;;;;;;;31.10;14.40;;;;;;;3.29;100.00;102143.74;107864;1281;72977;-73
2022/03/15 02:32:51;;;;;;;29.50;15.70;;;;;;;3.20;100.00;102139.20;107718;1281;61537;-74
2022/03/15 02:35:20;;;;;;;31.10;14.60;;;;;;;3.13;100.00;102138.39;107999;1279;60284;-75
2022/03/15 02:37:56;;;;;;;29.40;15.50;;;;;;;3.08;100.00;102135.53;107747;1281;75017;-73
2022/03/15 02:40:23;;;;;;;38.90;15.90;;;;;;;3.06;100.00;102134.46;108000;1280;72524;-74
2022/03/15 02:42:50;;;;;;;34.60;16.40;;;;;;;3.05;100.00;102129.94;107996;1279;74140;-75
2022/03/15 02:45:17;;;;;;;36.60;16.90;;;;;;;3.04;100.00;102125.11;108028;1279;62571;-73
2022/03/15 02:50:43;;;;;;;33.20;17.30;;;;;;;3.02;100.00;102115.08;107962;1267;154537;-74
2022/03/15 02:53:16;;;;;;;41.20;17.40;;;;;;;3.04;100.00;102110.65;107880;1279;72678;-74
2022/03/15 02:55:46;;;;;;;37.90;16.70;;;;;;;3.04;100.00;102113.54;107903;1279;74213;-73
2022/03/15 02:58:25;;;;;;;;;;;;;;;;;;;;;
2022/03/15 03:00:53;;;;;;;41.20;18.30;;;;;;;3.05;100.00;102113.86;108037;1279;60605;-75
2022/03/15 03:03:22;;;;;;;33.10;15.60;;;;;;;3.04;100.00;102111.17;107981;1279;76068;-75
2022/03/15 03:05:49;;;;;;;30.30;14.70;;;;;;;3.02;100.00;102108.65;108056;1279;72365;-73
2022/03/15 03:08:16;;;;;;;28.50;14.80;;;;;;;3.01;100.00;102107.84;108008;1279;72858;-75
2022/03/15 03:10:57;;;;;;;;;;;;;;;;;;;;;
2022/03/15 03:13:57;;;;;;;28.40;14.70;;;;;;;2.96;100.00;102106.57;108013;1279;61719;-74
2022/03/15 03:16:50;;;;;;;;;;;;;;;;;;;;;
2022/03/15 03:19:29;;;;;;;;;;;;;;;;;;;;;
2022/03/15 03:22:08;;;;;;;30.10;14.80;;;;;;;2.94;100.00;102117.52;107947;1279;72906;-76
2022/03/15 03:24:58;;;;;;;31.20;14.00;;;;;;;2.94;100.00;102114.91;108012;1279;61419;-73
2022/03/15 03:27:27;;;;;;;33.90;17.00;;;;;;;2.94;100.00;102116.65;108037;1279;61612;-76
2022/03/15 03:29:58;;;;;;;32.60;15.40;;;;;;;2.94;100.00;102118.54;107994;1279;77057;-75
2022/03/15 03:32:26;;;;;;;33.60;15.10;;;;;;;2.94;100.00;102118.42;107792;1279;70300;-76
2022/03/15 03:35:23;;;;;;;33.00;15.00;;;;;;;2.92;100.00;102115.16;107884;1279;72622;-74
2022/03/15 03:38:21;;;;;;;32.30;14.90;;;;;;;2.91;100.00;102115.05;107983;1279;61436;-73
2022/03/15 03:40:49;;;;;;;29.50;14.90;;;;;;;2.91;100.00;102115.98;107979;1279;61353;-75
2022/03/15 03:44:18;;;;;;;34.40;14.80;;;;;;;2.89;100.00;102110.46;108004;1279;74927;-75
2022/03/15 03:47:27;;;;;;;31.60;14.30;;;;;;;2.89;100.00;102113.44;107997;1277;73979;-73
2022/03/15 03:50:05;;;;;;;;;;;;;;;;;;;;;
2022/03/15 03:52:32;;;;;;;35.40;13.60;;;;;;;2.85;100.00;102109.81;107908;1268;148265;-75
2022/03/15 03:55:02;;;;;;;28.70;14.20;;;;;;;2.83;100.00;102111.33;107964;1279;61056;-78
2022/03/15 03:57:29;;;;;;;30.30;13.50;;;;;;;2.78;100.00;102106.90;108024;1279;73728;-77
2022/03/15 04:00:27;;;;;;;;;;;;;;;;;;;;;
2022/03/15 04:03:25;;;;;;;25.60;12.70;;;;;;;2.74;100.00;102100.00;107840;1281;73018;-74
2022/03/15 04:06:36;;;;;;;;;;;;;;;;;;;;;
2022/03/15 04:09:16;;;;;;;;;;;;;;;;;;;;;
2022/03/15 04:11:50;;;;;;;24.00;12.70;;;;;;;2.61;100.00;102104.92;107983;1279;75962;-76
2022/03/15 04:14:22;;;;;;;27.10;12.50;;;;;;;2.55;100.00;102098.79;107874;1279;71647;-76
2022/03/15 04:16:49;;;;;;;26.30;13.30;;;;;;;2.51;100.00;102097.10;107999;1279;72885;-76
2022/03/15 04:19:36;;;;;;;30.60;15.40;;;;;;;2.49;100.00;102096.35;108010;1279;61849;-76
2022/03/15 04:22:12;;;;;;;30.40;13.40;;;;;;;2.48;100.00;102092.23;108013;1279;61719;-73
2022/03/15 04:35:00;;;;;;;26.60;12.70;;;;;;;2.47;100.00;102096.16;108214;1270;59404;-71
2022/03/15 04:37:29;;;;;;;26.60;13.00;;;;;;;2.48;100.00;102091.34;108237;1268;59657;-71
2022/03/15 04:45:36;;;;;;;33.70;13.50;;;;;;;2.50;100.00;102093.84;108210;1271;154798;31
2022/03/15 04:48:34;;;;;;;28.50;13.50;;;;;;;2.50;100.00;102093.36;107594;1271;143181;-72
2022/03/15 04:51:05;;;;;;;31.90;13.60;;;;;;;2.48;100.00;102087.71;107501;1282;76034;-72
2022/03/15 04:53:52;;;;;;;29.00;14.20;;;;;;;2.45;100.00;102090.65;107819;1269;150465;31
2022/03/15 04:59:51;;;;;;;28.10;14.90;;;;;;;2.40;100.00;102095.30;108033;1269;61375;-74
2022/03/15 05:02:23;;;;;;;28.30;13.40;;;;;;;2.37;100.00;102085.17;107693;1281;59480;-78
2022/03/15 05:05:00;;;;;;;29.40;14.00;;;;;;;2.37;100.00;102085.14;107714;1281;75062;-73
2022/03/15 05:08:08;;;;;;;;;;;;;;;;;;;;;
2022/03/15 05:13:47;;;;;;;27.80;13.40;;;;;;;2.31;100.00;102087.07;107601;1282;60304;-75
2022/03/15 05:16:25;;;;;;;26.60;12.40;;;;;;;2.30;100.00;102086.09;107657;1282;60569;-75
2022/03/15 05:19:02;;;;;;;24.10;12.70;;;;;;;2.29;100.00;102090.32;107741;1281;76165;-75
2022/03/15 05:21:50;;;;;;;27.80;14.40;;;;;;;2.27;100.00;102088.36;107749;1281;72397;-73
2022/03/15 05:24:26;;;;;;;;;;;;;;;;;;;;;
2022/03/15 05:27:01;;;;;;;;;;;;;;;2.26;100.00;102095.23;107395;1271;156537;-76
2022/03/15 05:29:37;;;;;;;33.40;15.10;;;;;;;2.26;100.00;102093.83;107642;1281;59277;-75
2022/03/15 05:32:04;;;;;;;28.20;13.80;;;;;;;2.26;100.00;102092.23;107637;1281;74886;-74
2022/03/15 05:35:01;;;;;;;29.40;13.50;;;;;;;2.29;100.00;102089.98;107570;1283;71461;-76
2022/03/15 05:37:32;;;;;;;26.90;13.30;;;;;;;2.31;100.00;102092.29;107525;1281;71977;-77
2022/03/15 05:40:20;;;;;;;28.50;13.30;;;;;;;2.34;100.00;102091.42;107406;1284;60355;-75
2022/03/15 05:42:46;;;;;;;30.70;14.90;;;;;;;2.35;100.00;102088.20;107438;1284;60833;-69
2022/03/15 05:45:15;;;;;;;28.70;13.60;;;;;;;2.39;100.00;102089.23;107635;1281;76104;-69
2022/03/15 05:47:42;;;;;;;31.60;14.70;;;;;;;2.43;100.00;102086.19;107665;1281;71456;-69
2022/03/15 05:50:09;;;;;;;34.10;14.90;;;;;;;2.48;100.00;102085.23;107627;1282;72103;-70
2022/03/15 05:52:36;;;;;;;28.40;13.80;;;;;;;2.52;100.00;102085.85;107609;1282;61697;-71
2022/03/15 05:55:03;;;;;;;29.80;13.10;;;;;;;2.58;100.00;102091.66;107594;1282;61648;-69
2022/03/15 05:57:30;;;;;;;26.30;12.90;;;;;;;2.60;100.00;102093.09;107519;1284;74931;-70
2022/03/15 06:00:00;;;;;;;26.60;13.00;;;;;;;2.61;100.00;102096.36;107501;1284;71553;-71
2022/03/15 06:02:27;;;;;;;26.70;13.40;;;;;;;2.65;100.00;102099.08;107387;1283;73152;-69
2022/03/15 06:04:53;;;;;;;28.60;13.30;;;;;;;2.70;100.00;102099.36;107619;1282;61440;-69
2022/03/15 06:07:41;;;;;;;;;;;;;;;;;;;;;
2022/03/15 06:10:08;;;;;;;28.70;13.20;;;;;;;2.76;100.00;102097.09;107421;1282;76278;-71
2022/03/15 06:12:37;;;;;;;24.90;13.30;;;;;;;2.78;100.00;102100.95;107655;1282;71497;-69
2022/03/15 06:15:04;;;;;;;27.20;13.80;;;;;;;2.81;100.00;102098.31;107403;1284;73013;-72
2022/03/15 06:17:34;;;;;;;29.60;14.10;;;;;;;2.84;100.00;102102.67;107620;1282;62249;-69
2022/03/15 06:20:01;;;;;;;28.10;14.40;;;;;;;2.87;100.00;102100.08;107645;1282;60612;-72
2022/03/15 06:22:34;;;;;;;29.20;14.80;;;;;;;2.90;100.00;102096.75;107632;1282;76410;-69
2022/03/15 06:25:00;;;;;;;27.50;13.80;;;;;;;2.98;100.00;102099.45;107285;1285;70468;-71
2022/03/15 06:27:27;;;;;;;24.80;13.00;;;;;;;3.06;100.00;102102.64;107401;1284;74092;-68
2022/03/15 06:29:54;;;;;;;26.10;12.80;;;;;;;3.14;100.00;102100.56;107596;1281;59151;-70
2022/03/15 06:32:21;;;;;;;23.10;12.40;;;;;;;3.22;100.00;102095.38;107697;1282;61756;-70
2022/03/15 06:35:15;;;;;;;27.20;14.00;;;;;;;3.32;100.00;102097.60;107667;1282;75062;-70
2022/03/15 06:37:46;;;;;;;26.20;13.00;;;;;;;3.42;100.00;102098.55;107642;1282;71502;-72
2022/03/15 06:40:15;;;;;;;27.70;12.90;;;;;;;3.48;100.00;102104.83;107318;1284;71714;-70
2022/03/15 06:42:52;;;;;;;26.90;13.00;;;;;;;3.55;100.00;102107.00;107483;1284;61556;-70
2022/03/15 06:45:35;;;;;;;23.90;11.80;;;;;;;3.62;100.00;102107.97;107481;1282;61604;-71
2022/03/15 06:48:02;;;;;;;28.80;13.30;;;;;;;3.69;100.00;102107.41;107635;1282;75802;-72
2022/03/15 06:50:36;;;;;;;27.10;12.50;;;;;;;3.74;100.00;102109.00;107602;1282;71393;-72
2022/03/15 06:53:03;;;;;;;23.70;12.10;;;;;;;3.79;100.00;102104.80;107595;1282;74569;-70
2022/03/15 06:55:41;;;;;;;24.30;12.60;;;;;;;3.87;100.00;102102.95;107538;1282;60739;-69
2022/03/15 06:58:07;;;;;;;27.00;12.60;;;;;;;3.96;100.00;102106.20;107534;1283;60494;-68
2022/03/15 07:00:44;;;;;;;24.00;12.10;;;;;;;4.04;100.00;102108.70;107638;1282;75993;-68
2022/03/15 07:03:15;;;;;;;27.50;13.00;;;;;;;4.11;100.00;102105.27;107332;1282;72399;-70
2022/03/15 07:06:08;;;;;;;23.80;13.00;;;;;;;4.19;100.00;102108.12;107519;1282;71758;-69
2022/03/15 07:08:54;;;;;;;25.10;13.40;;;;;;;4.30;100.00;102106.33;107405;1282;60909;-70
2022/03/15 07:11:22;;;;;;;24.50;12.40;;;;;;;4.42;100.00;102107.29;107258;1282;245314;-71
2022/03/15 07:13:48;;;;;;;22.00;11.60;;;;;;;4.52;100.00;102107.88;107598;1282;74956;-70
2022/03/15 07:16:15;;;;;;;22.90;11.50;;;;;;;4.61;100.00;102105.02;107543;1283;73179;-70
2022/03/15 07:18:42;;;;;;;22.40;11.00;;;;;;;4.72;100.00;102103.08;107561;1282;74119;-69
2022/03/15 07:21:50;;;;;;;29.10;12.10;;;;;;;4.82;100.00;102104.13;107564;1282;62265;-68
2022/03/15 07:24:16;;;;;;;23.80;12.00;;;;;;;4.96;99.96;102100.06;107508;1282;60471;-70
2022/03/15 07:26:42;;;;;;;23.50;11.90;;;;;;;5.05;99.86;102099.94;107447;1284;59051;-70
2022/03/15 07:29:23;;;;;;;24.70;12.40;;;;;;;5.16;99.69;102099.42;107608;1282;71462;-69
2022/03/15 07:32:03;;;;;;;20.10;10.70;;;;;;;5.31;99.78;102090.83;107230;1284;72951;-69
2022/03/15 07:34:50;;;;;;;21.00;11.50;;;;;;;5.42;99.65;102086.19;107601;1282;62209;-69
2022/03/15 07:37:22;;;;;;;21.50;10.70;;;;;;;5.52;98.78;102087.95;107593;1281;59578;-71
2022/03/15 07:39:56;;;;;;;24.10;11.60;;;;;;;5.61;98.42;102081.88;107335;1282;75548;-71
2022/03/15 07:42:26;;;;;;;22.30;10.90;;;;;;;5.71;98.07;102081.71;107618;1282;72437;-71
2022/03/15 07:44:56;;;;;;;19.30;10.20;;;;;;;5.78;97.76;102081.39;107578;1282;73179;-70
2022/03/15 07:47:23;;;;;;;19.10;10.10;;;;;;;5.86;97.49;102079.23;107309;1282;62379;-71
2022/03/15 07:50:26;;;;;;;;;;;;;;;;;;;;;
2022/03/15 07:52:53;;;;;;;19.10;11.10;;;;;;;6.04;96.95;102073.23;107536;1282;75204;-70
2022/03/15 07:55:23;;;;;;;17.40;9.40;;;;;;;6.13;97.03;102074.14;107357;1282;71672;-70
2022/03/15 07:57:50;;;;;;;20.00;9.20;;;;;;;6.22;96.64;102072.64;107597;1281;73033;-69
2022/03/15 08:00:26;;;;;;;23.30;11.10;;;;;;;6.32;96.79;102071.01;107621;1281;63298;-71
2022/03/15 08:03:35;;;;;;;18.40;9.80;;;;;;;6.46;96.98;102066.45;107253;1282;61601;-69
2022/03/15 08:06:02;;;;;;;17.70;9.40;;;;;;;6.65;96.28;102066.49;107608;1282;74976;-70
2022/03/15 08:08:31;;;;;;;12.60;7.50;;;;;;;6.79;96.40;102062.21;107545;1284;72939;-70
2022/03/15 08:10:58;;;;;;;16.40;8.60;;;;;;;6.92;95.55;102066.84;107617;1281;73076;-69
2022/03/15 08:13:24;;;;;;;16.20;8.50;;;;;;;7.02;94.55;102067.20;107628;1281;62020;-69
2022/03/15 08:15:51;;;;;;;20.00;10.90;;;;;;;7.09;93.88;102062.95;107628;1281;61646;-70
2022/03/15 08:18:18;;;;;;;14.60;7.70;;;;;;;7.20;93.99;102063.66;107540;1282;76016;-69
2022/03/15 08:20:45;;;;;;;12.90;7.50;;;;;;;7.32;93.26;102062.22;107309;1282;69916;-70
2022/03/15 08:23:17;;;;;;;18.70;9.80;;;;;;;7.40;92.48;102063.34;107368;1282;71747;-69
2022/03/15 08:25:43;;;;;;;13.10;6.80;;;;;;;7.47;92.22;102058.17;107514;1282;61171;-69
2022/03/15 08:28:22;;;;;;;18.00;10.00;;;;;;;7.53;91.16;102058.45;107550;1281;59359;-70
2022/03/15 08:31:06;;;;;;;19.10;9.50;;;;;;;7.60;90.60;102055.92;107491;1281;75357;-71
2022/03/15 08:33:34;;;;;;;17.80;8.20;;;;;;;7.69;91.16;102057.84;107553;1282;71478;-71
2022/03/15 08:36:01;;;;;;;16.50;9.60;;;;;;;7.78;90.61;102059.97;107459;1284;59255;-69
2022/03/15 08:38:33;;;;;;;14.40;8.70;;;;;;;7.90;90.92;102061.33;107536;1283;62332;-71
2022/03/15 08:41:11;;;;;;;16.40;8.70;;;;;;;8.01;89.82;102062.36;107382;1282;59152;-71
2022/03/15 08:43:48;;;;;;;16.80;9.10;;;;;;;8.13;89.60;102060.11;107589;1282;75413;-72
2022/03/15 08:46:21;;;;;;;16.30;9.00;;;;;;;8.29;89.59;102057.04;107438;1283;70177;-69
2022/03/15 08:48:49;;;;;;;16.00;9.30;;;;;;;8.44;89.21;102054.29;107305;1282;76189;-72
2022/03/15 08:51:16;;;;;;;13.70;8.60;;;;;;;8.57;88.82;102058.84;107743;1282;61222;-70
2022/03/15 08:53:42;;;;;;;16.30;9.80;;;;;;;8.66;88.60;102057.93;107580;1282;60128;-72
2022/03/15 08:56:09;;;;;;;12.90;8.00;;;;;;;8.74;88.52;102056.84;107631;1282;74876;-71
2022/03/15 08:58:36;;;;;;;14.30;8.60;;;;;;;8.81;88.32;102049.29;107374;1282;71410;-72
2022/03/15 09:01:02;;;;;;;16.10;7.70;;;;;;;8.86;88.09;102044.91;107633;1282;59213;-74
2022/03/15 09:04:14;;;;;;;13.20;7.50;;;;;;;8.96;88.21;102043.55;107550;1281;64618;-73
2022/03/15 09:06:41;;;;;;;11.70;6.20;;;;;;;9.05;87.82;102039.27;107531;1282;60766;-71
2022/03/15 09:09:08;;;;;;;14.90;7.10;;;;;;;9.12;87.36;102032.10;107471;1282;76126;-71
2022/03/15 09:11:35;;;;;;;13.60;7.50;;;;;;;9.21;86.28;102030.13;107523;1281;71358;-69
2022/03/15 09:14:02;;;;;;;9.80;5.30;;;;;;;9.32;86.31;102028.14;107492;1283;73053;-70
2022/03/15 09:16:29;;;;;;;10.20;6.00;;;;;;;9.39;85.88;102022.52;107600;1281;60629;-68
2022/03/15 09:19:41;;;;;;;;;;;;;;;;;;;;;
2022/03/15 09:22:10;;;;;;;10.00;5.70;;;;;;;9.69;85.75;102017.41;107514;1282;73300;-71
2022/03/15 09:24:38;;;;;;;11.50;5.90;;;;;;;9.82;84.89;102014.47;107353;1282;68908;-71
2022/03/15 09:27:05;;;;;;;9.20;5.50;;;;;;;9.94;83.65;102007.99;107537;1282;72991;-70
2022/03/15 09:29:32;;;;;;;9.40;5.60;;;;;;;10.04;82.39;102005.48;107622;1282;62210;-69
2022/03/15 09:32:08;;;;;;;10.10;5.60;;;;;;;10.11;81.47;102001.85;107591;1281;61383;-71
2022/03/15 09:34:37;;;;;;;8.50;5.20;;;;;;;10.13;80.21;102002.14;107288;1282;75080;-70
2022/03/15 09:37:05;;;;;;;9.00;5.30;;;;;;;10.18;79.99;101997.67;107554;1282;70521;-70
2022/03/15 09:39:34;;;;;;;11.50;5.60;;;;;;;10.21;79.82;101997.52;107534;1283;72544;-70
2022/03/15 09:42:08;;;;;;;8.70;5.20;;;;;;;10.27;79.19;101994.59;107516;1284;62088;-68
2022/03/15 09:44:38;;;;;;;7.60;4.60;;;;;;;10.35;79.09;101990.30;107607;1282;60628;-68
2022/03/15 09:47:06;;;;;;;12.00;5.70;;;;;;;10.41;78.94;101990.48;107633;1281;75096;-69
2022/03/15 09:49:34;;;;;;;10.30;5.40;;;;;;;10.51;78.53;101990.55;107620;1282;71575;-70
2022/03/15 09:52:06;;;;;;;9.40;6.10;;;;;;;10.64;77.86;101992.39;107521;1282;74282;-69
2022/03/15 09:54:33;;;;;;;9.10;4.50;;;;;;;10.75;77.32;101993.15;107568;1282;60644;-69
2022/03/15 09:57:02;;;;;;;8.80;5.70;;;;;;;10.78;76.53;101986.06;107612;1282;61990;-68
2022/03/15 09:59:32;;;;;;;8.30;4.60;;;;;;;10.84;76.57;101987.30;107607;1281;76231;-68
2022/03/15 10:02:00;;;;;;;7.80;4.40;;;;;;;10.92;75.80;101984.29;107571;1282;73710;-66
2022/03/15 10:04:30;;;;;;;9.70;5.30;;;;;;;11.02;76.08;101977.52;107535;1282;73003;-66
2022/03/15 10:07:08;;;;;;;6.70;4.70;;;;;;;11.11;76.11;101975.54;107365;1284;59460;-70
2022/03/15 10:09:35;;;;;;;11.30;5.60;;;;;;;11.19;75.54;101974.05;107529;1281;60771;-68
2022/03/15 10:12:12;;;;;;;8.30;5.40;;;;;;;11.24;74.85;101973.30;107356;1282;77328;-67
2022/03/15 10:14:45;;;;;;;9.80;5.60;;;;;;;11.33;74.86;101973.48;107544;1282;71688;-67
2022/03/15 10:17:22;;;;;;;7.80;4.90;;;;;;;11.42;74.91;101967.10;107329;1282;72918;-67
2022/03/15 10:19:56;;;;;;;7.00;4.20;;;;;;;11.51;73.76;101967.17;107455;1282;63553;-66
2022/03/15 10:22:25;;;;;;;11.50;4.80;;;;;;;11.51;73.00;101964.11;107618;1281;59321;-68
2022/03/15 10:24:52;;;;;;;7.40;3.80;;;;;;;11.56;72.64;101963.26;107562;1282;76121;-67
2022/03/15 10:27:19;;;;;;;7.80;4.30;;;;;;;11.60;72.23;101962.08;107538;1283;71546;-67
2022/03/15 10:29:47;;;;;;;6.60;4.50;;;;;;;11.62;71.16;101954.98;107566;1281;74165;-68
2022/03/15 10:32:15;;;;;;;8.00;4.70;;;;;;;11.66;71.83;101951.77;107526;1282;60816;-67
2022/03/15 10:34:43;;;;;;;8.20;4.60;;;;;;;11.74;72.31;101948.56;107583;1282;59518;-69
2022/03/15 10:37:11;;;;;;;6.60;3.70;;;;;;;11.80;72.29;101951.88;107513;1282;73785;-67
2022/03/15 10:39:39;;;;;;;8.90;4.80;;;;;;;11.80;71.46;101946.29;107565;1282;72355;-67
2022/03/15 10:42:08;;;;;;;9.70;5.20;;;;;;;11.83;71.23;101944.95;107424;1283;73066;-68
2022/03/15 10:44:43;;;;;;;7.90;5.00;;;;;;;11.86;71.02;101942.41;107520;1282;60369;-69
2022/03/15 10:47:17;;;;;;;6.10;3.40;;;;;;;11.92;71.10;101939.38;107287;1284;59846;-69
2022/03/15 10:49:59;;;;;;;7.10;4.00;;;;;;;11.96;69.94;101939.35;107535;1282;75144;-67
2022/03/15 10:52:40;;;;;;;5.40;3.90;;;;;;;11.99;70.01;101938.61;107608;1282;72633;-68
2022/03/15 10:55:28;;;;;;;6.50;3.40;;;;;;;12.07;70.04;101936.41;107546;1282;72734;-67
2022/03/15 10:57:59;;;;;;;6.90;3.90;;;;;;;12.13;69.21;101931.56;107455;1282;61322;-69
2022/03/15 11:00:31;;;;;;;6.70;4.20;;;;;;;12.12;68.77;101932.00;107515;1282;61833;-68
2022/03/15 11:02:59;;;;;;;7.60;4.20;;;;;;;12.15;69.19;101924.98;107562;1282;74970;-70
2022/03/15 11:05:34;;;;;;;5.80;3.40;;;;;;;12.20;69.24;101917.86;107535;1284;70324;-69
2022/03/15 11:08:06;;;;;;;6.20;3.80;;;;;;;12.26;68.78;101916.09;107368;1282;72926;-68
2022/03/15 11:10:34;;;;;;;7.00;3.90;;;;;;;12.33;68.30;101910.36;107526;1282;60851;-68
2022/03/15 11:13:11;;;;;;;7.20;3.30;;;;;;;12.39;67.91;101905.48;107540;1281;61773;-70
2022/03/15 11:15:49;;;;;;;7.00;4.00;;;;;;;12.49;66.84;101903.96;107569;1282;73595;-68
2022/03/15 11:18:29;;;;;;;8.40;4.20;;;;;;;12.56;66.54;101898.25;107387;1283;72419;-68
2022/03/15 11:21:11;;;;;;;5.60;3.40;;;;;;;12.71;66.31;101898.83;107186;1284;72953;-67
2022/03/15 11:23:39;;;;;;;6.10;3.70;;;;;;;12.80;64.75;101895.27;107529;1282;60739;-68
2022/03/15 11:26:08;;;;;;;5.90;3.80;;;;;;;12.90;65.59;101890.00;107534;1282;60675;-69
2022/03/15 11:28:39;;;;;;;6.40;3.80;;;;;;;13.01;65.14;101886.82;107486;1282;74952;-68
2022/03/15 11:31:06;;;;;;;6.50;4.30;;;;;;;13.16;64.30;101887.30;107444;1283;71520;-67
2022/03/15 11:33:37;;;;;;;7.60;3.90;;;;;;;13.25;63.85;101880.59;107356;1282;73952;-68
2022/03/15 11:36:07;;;;;;;6.10;3.90;;;;;;;13.27;61.98;101877.71;107481;1282;61349;-68
2022/03/15 11:38:34;;;;;;;9.20;3.50;;;;;;;13.25;62.14;101872.23;107543;1282;62110;-67
2022/03/15 11:41:00;;;;;;;6.80;3.70;;;;;;;13.26;62.21;101867.91;107423;1282;76507;-68
2022/03/15 11:44:01;;;;;;;10.50;4.50;;;;;;;13.29;61.90;101861.05;107559;1282;71649;-68
2022/03/15 11:47:14;;;;;;;6.80;3.90;;;;;;;13.30;61.92;101852.38;107479;1282;74170;-69
2022/03/15 11:49:48;;;;;;;5.40;3.30;;;;;;;13.36;61.97;101842.70;107563;1282;61642;-67
2022/03/15 11:52:23;;;;;;;5.30;4.10;;;;;;;13.38;61.25;101839.64;107446;1282;60813;-68
2022/03/15 11:55:14;;;;;;;6.00;3.20;;;;;;;13.46;61.69;101834.34;107516;1282;76218;-69
2022/03/15 11:57:56;;;;;;;5.60;4.00;;;;;;;13.50;59.97;101827.15;107581;1282;71450;-69
2022/03/15 12:00:29;;;;;;;12.20;3.60;;;;;;;13.49;59.28;101828.35;107596;1282;73990;-69
2022/03/15 12:02:59;;;;;;;6.30;2.70;;;;;;;13.51;60.03;101818.02;107596;1281;60601;-67
2022/03/15 12:05:27;;;;;;;5.10;3.30;;;;;;;13.53;59.98;101813.32;107389;1282;60721;-68
2022/03/15 12:08:12;;;;;;;8.50;3.50;;;;;;;13.56;59.88;101809.13;107606;1282;73667;-70
2022/03/15 12:10:46;;;;;;;8.00;3.40;;;;;;;13.57;59.52;101803.02;107519;1281;71495;-69
2022/03/15 12:13:40;;;;;;;7.20;3.50;;;;;;;13.54;58.61;101801.80;107559;1282;72199;-69
2022/03/15 12:16:15;;;;;;;5.70;3.40;;;;;;;13.51;58.56;101797.89;107504;1282;59308;-70
2022/03/15 12:18:54;;;;;;;5.60;2.90;;;;;;;13.47;58.67;101789.98;107493;1283;60687;-70
2022/03/15 12:21:39;;;;;;;5.50;2.70;;;;;;;13.47;58.99;101786.73;107685;1271;74913;-69
2022/03/15 12:24:34;;;;;;;6.90;3.10;;;;;;;13.50;59.21;101783.80;107348;1284;70795;-72
2022/03/15 12:27:34;;;;;;;5.60;3.50;;;;;;;13.47;58.89;101780.34;107428;1282;72221;-72
2022/03/15 12:30:10;;;;;;;;;;;;;;;;;;;;;
2022/03/15 12:32:57;;;;;;;5.90;3.10;;;;;;;13.43;58.30;101770.77;107582;1282;62149;-72
2022/03/15 12:35:32;;;;;;;7.10;2.60;;;;;;;13.36;57.87;101763.94;107542;1284;76134;-70
2022/03/15 12:38:32;;;;;;;4.80;2.70;;;;;;;13.37;58.02;101759.08;107565;1283;71550;-70
2022/03/15 12:41:01;;;;;;;5.30;2.50;;;;;;;13.39;58.64;101754.01;107519;1283;73246;-69
2022/03/15 12:43:31;;;;;;;5.40;2.90;;;;;;;13.44;58.20;101749.04;107482;1284;61810;-71
2022/03/15 12:46:00;;;;;;;8.70;3.40;;;;;;;13.46;57.75;101743.14;107554;1284;60683;-68
2022/03/15 12:48:40;;;;;;;4.80;3.00;;;;;;;13.44;57.18;101739.98;107578;1283;74925;-71
2022/03/15 12:51:37;;;;;;;6.80;2.60;;;;;;;13.43;57.35;101737.25;107554;1282;71571;-69
2022/03/15 12:54:06;;;;;;;6.60;3.10;;;;;;;13.40;57.36;101734.36;107518;1284;73196;-72
2022/03/15 12:57:06;;;;;;;7.80;3.40;;;;;;;13.34;57.73;101729.50;107532;1283;61789;-71
2022/03/15 12:59:33;;;;;;;6.20;3.40;;;;;;;13.34;57.74;101722.20;107655;1282;61748;-70
2022/03/15 13:02:16;;;;;;;8.40;3.60;;;;;;;13.36;57.77;101717.97;107488;1284;76076;-70
2022/03/15 13:04:55;;;;;;;8.10;3.40;;;;;;;13.40;58.80;101718.27;107429;1283;72675;-71